Time;durP1;ratioP1;P1;durP2;ratioP2;P2;SDS_P1;SDS_P2;PMS_P1;PMS_P2;Temp;Humidity;BMP_temperature;BMP_pressure;BME280_temperature;BME280_humidity;BME280_pressure;Samples;Min_cycle;Max_cycle;Signal;HPM_P1;HPM_P2
2022/04/26 03:36:36;;;;;;;8.70;4.10;;;9.50;99.90;;;;;;5093974;28;20038;-55
2022/04/26 03:39:03;;;;;;;4.20;3.78;;;9.50;99.90;;;;;;5092435;28;20103;-55
2022/04/26 03:41:28;;;;;;;6.95;4.30;;;9.60;99.90;;;;;;5093211;28;20465;-54
2022/04/26 03:43:54;;;;;;;6.70;4.72;;;9.60;99.90;;;;;;5091667;28;20031;-55
2022/04/26 03:46:19;;;;;;;6.63;4.20;;;9.70;99.90;;;;;;5093743;28;20024;-54
2022/04/26 03:48:45;;;;;;;8.10;4.72;;;9.70;99.90;;;;;;5093173;28;20035;-55
2022/04/26 03:51:11;;;;;;;5.50;4.25;;;9.70;99.90;;;;;;5093651;28;20423;-54
2022/04/26 03:53:36;;;;;;;4.60;4.03;;;9.70;99.90;;;;;;5093421;28;20052;-55
2022/04/26 03:56:02;;;;;;;8.75;4.40;;;9.70;99.90;;;;;;5093365;28;20032;-55
2022/04/26 03:58:29;;;;;;;9.52;4.13;;;9.70;99.90;;;;;;5093072;28;20024;-54
2022/04/26 04:00:55;;;;;;;7.78;3.78;;;9.80;99.90;;;;;;5092949;28;20518;-55
2022/04/26 04:03:20;;;;;;;11.00;4.38;;;9.60;99.90;;;;;;5093126;28;20024;-55
2022/04/26 04:05:46;;;;;;;6.25;4.10;;;9.60;99.90;;;;;;5091735;28;20020;-56
2022/04/26 04:08:11;;;;;;;7.50;4.00;;;9.60;99.90;;;;;;5093033;28;20035;-55
2022/04/26 04:10:37;;;;;;;8.00;4.13;;;9.60;99.90;;;;;;5091656;28;20400;-55
2022/04/26 04:13:03;;;;;;;5.95;4.20;;;9.60;99.90;;;;;;5109013;28;20023;-55
2022/04/26 04:15:29;;;;;;;5.80;4.07;;;9.60;99.90;;;;;;5093296;28;20073;-54
2022/04/26 04:17:55;;;;;;;5.38;3.95;;;9.60;99.90;;;;;;5092557;28;20042;-55
2022/04/26 04:20:21;;;;;;;5.20;4.00;;;9.70;99.90;;;;;;5091143;28;20111;-55
2022/04/26 04:22:53;;;;;;;8.55;4.38;;;9.70;99.90;;;;;;5092797;28;20085;-55
2022/04/26 04:25:21;;;;;;;8.73;4.90;;;9.80;99.90;;;;;;5091401;28;20031;-54
2022/04/26 04:27:47;;;;;;;6.47;4.28;;;9.80;99.90;;;;;;5092641;28;20446;-54
2022/04/26 04:30:13;;;;;;;8.95;4.22;;;9.80;99.90;;;;;;5091873;28;20046;-55
2022/04/26 04:32:39;;;;;;;5.55;4.13;;;9.80;99.90;;;;;;5093194;28;20074;-55
2022/04/26 04:35:06;;;;;;;8.80;4.40;;;9.80;99.90;;;;;;5093082;28;20081;-54
2022/04/26 04:37:32;;;;;;;10.18;4.95;;;9.80;99.90;;;;;;5092239;28;20488;-55
2022/04/26 04:39:57;;;;;;;9.02;5.00;;;9.80;99.90;;;;;;5093215;28;20028;-54
2022/04/26 04:42:23;;;;;;;5.28;4.43;;;9.80;99.90;;;;;;5092341;28;20374;-55
2022/04/26 04:44:49;;;;;;;10.18;4.82;;;9.80;99.90;;;;;;5093271;28;20030;-55
2022/04/26 04:47:14;;;;;;;5.80;4.35;;;9.80;99.90;;;;;;5093107;28;20043;-55
2022/04/26 04:49:40;;;;;;;8.30;4.60;;;9.70;99.90;;;;;;5093364;28;20032;-56
2022/04/26 04:52:06;;;;;;;10.20;4.90;;;9.80;99.90;;;;;;5093360;28;20025;-54
2022/04/26 04:54:32;;;;;;;6.75;4.68;;;9.80;99.90;;;;;;5091270;28;20122;-55
2022/04/26 04:56:57;;;;;;;6.30;5.15;;;9.80;99.90;;;;;;5092597;28;20032;-55
2022/04/26 04:59:23;;;;;;;6.70;4.45;;;9.90;99.90;;;;;;5092529;28;20030;-54
2022/04/26 05:01:49;;;;;;;7.50;4.80;;;9.90;99.90;;;;;;5093273;28;20099;-55
2022/04/26 05:04:14;;;;;;;7.05;4.60;;;9.90;99.90;;;;;;5092550;28;20036;-55
2022/04/26 05:06:40;;;;;;;7.65;4.78;;;9.90;99.90;;;;;;5092066;28;20099;-55
2022/04/26 05:09:05;;;;;;;8.23;4.45;;;9.90;99.90;;;;;;5092014;28;20028;-56
2022/04/26 05:11:31;;;;;;;11.15;4.88;;;9.80;99.90;;;;;;5092491;28;20407;-55
2022/04/26 05:13:57;;;;;;;6.30;5.00;;;9.80;99.90;;;;;;5091867;28;20024;-55
2022/04/26 05:16:22;;;;;;;10.55;5.10;;;9.80;99.90;;;;;;5091305;28;20031;-55
2022/04/26 05:18:48;;;;;;;8.73;4.55;;;9.80;99.90;;;;;;5092473;28;20077;-55
2022/04/26 05:21:14;;;;;;;8.98;4.88;;;9.90;99.90;;;;;;5092938;28;20031;-54
2022/04/26 05:26:25;;;;;;;6.72;4.80;;;10.00;99.90;;;;;;5091419;28;20031;-55
2022/04/26 05:28:51;;;;;;;6.93;4.50;;;9.90;99.90;;;;;;5092132;28;20020;-55
2022/04/26 05:31:17;;;;;;;6.88;4.30;;;9.90;99.90;;;;;;5091467;28;20024;-56
2022/04/26 05:33:42;;;;;;;6.47;4.32;;;10.00;99.90;;;;;;5091282;28;20048;-56
2022/04/26 05:36:11;;;;;;;9.63;4.50;;;10.00;99.90;;;;;;5090273;28;20028;-53
2022/04/26 05:38:37;;;;;;;8.65;4.38;;;9.90;99.90;;;;;;5091318;28;20028;-54
2022/04/26 05:41:03;;;;;;;10.60;4.20;;;9.80;99.90;;;;;;5091434;28;20038;-55
2022/04/26 05:43:28;;;;;;;6.75;4.50;;;9.90;99.90;;;;;;5090996;28;20477;-55
2022/04/26 05:45:54;;;;;;;8.88;5.00;;;9.90;99.90;;;;;;5065030;28;20329;-55
2022/04/26 05:48:19;;;;;;;8.13;4.43;;;9.90;99.90;;;;;;5067129;28;20094;-55
2022/04/26 05:50:45;;;;;;;8.50;4.97;;;9.90;99.90;;;;;;5060159;28;20757;-55
2022/04/26 05:53:11;;;;;;;6.90;4.28;;;9.90;99.90;;;;;;5059968;28;20056;-55
2022/04/26 05:55:38;;;;;;;10.15;4.53;;;9.80;99.90;;;;;;5060475;28;20028;-55
2022/04/26 05:58:04;;;;;;;12.05;4.60;;;9.90;99.90;;;;;;5065314;28;20036;-55
2022/04/26 06:00:30;;;;;;;13.10;4.85;;;9.90;99.90;;;;;;5067212;28;20078;-55
2022/04/26 06:02:56;;;;;;;9.00;4.68;;;9.90;99.90;;;;;;5065785;28;20029;-56
2022/04/26 06:05:21;;;;;;;9.20;4.82;;;9.90;99.90;;;;;;5068833;28;20510;-56
2022/04/26 06:07:47;;;;;;;7.85;4.07;;;9.90;99.90;;;;;;5068027;28;20025;-55
2022/04/26 06:10:13;;;;;;;4.82;4.20;;;10.00;99.90;;;;;;5056723;28;20891;-55
2022/04/26 06:12:41;;;;;;;13.38;4.55;;;10.10;99.90;;;;;;5053961;28;20016;-56
2022/04/26 06:15:08;;;;;;;10.63;4.80;;;10.10;99.90;;;;;;5059823;28;20029;-55
2022/04/26 06:17:33;;;;;;;9.25;4.50;;;10.20;99.90;;;;;;5056124;28;20568;-55
2022/04/26 06:19:59;;;;;;;18.33;5.65;;;10.20;99.90;;;;;;5052061;28;20024;-55
2022/04/26 06:22:25;;;;;;;17.35;4.82;;;10.20;99.90;;;;;;5058756;28;20021;-55
2022/04/26 06:24:52;;;;;;;19.85;5.28;;;10.50;99.90;;;;;;5062121;28;20024;-55
2022/04/26 06:27:18;;;;;;;14.23;4.82;;;10.60;99.90;;;;;;5057179;28;20493;-54
2022/04/26 06:29:44;;;;;;;13.27;4.90;;;10.60;99.90;;;;;;5062920;28;20063;-55
2022/04/26 06:32:10;;;;;;;18.60;5.22;;;10.80;99.90;;;;;;5060408;28;20035;-55
2022/04/26 06:34:36;;;;;;;26.10;4.78;;;10.70;99.90;;;;;;5052272;28;20056;-55
2022/04/26 06:37:01;;;;;;;18.20;4.47;;;10.60;99.90;;;;;;5057838;28;20767;-55
2022/04/26 06:39:27;;;;;;;9.80;4.43;;;10.60;99.90;;;;;;5059520;28;20020;-55
2022/04/26 06:41:53;;;;;;;8.98;4.32;;;10.60;99.90;;;;;;5045957;28;20083;-55
2022/04/26 06:44:19;;;;;;;6.40;4.20;;;10.60;99.90;;;;;;5062226;28;20032;-55
2022/04/26 06:46:44;;;;;;;6.38;4.50;;;10.60;99.90;;;;;;5062934;28;20108;-55
2022/04/26 06:49:10;;;;;;;9.02;4.53;;;10.50;99.90;;;;;;5057487;28;20082;-55
2022/04/26 06:51:40;;;;;;;6.53;3.95;;;10.60;99.90;;;;;;5064316;28;20398;-55
2022/04/26 06:54:07;;;;;;;8.02;3.70;;;10.60;99.90;;;;;;5064908;28;20418;-55
2022/04/26 06:56:33;;;;;;;6.35;4.30;;;10.50;99.90;;;;;;5057860;28;20039;-55
2022/04/26 06:58:59;;;;;;;8.65;4.55;;;10.50;99.90;;;;;;5062102;28;20054;-55
2022/04/26 07:01:24;;;;;;;6.95;4.30;;;10.50;99.90;;;;;;5057875;28;20041;-55
2022/04/26 07:03:50;;;;;;;5.20;3.97;;;10.50;99.90;;;;;;5056679;28;21197;-55
2022/04/26 07:06:16;;;;;;;8.32;4.50;;;10.50;99.90;;;;;;5061272;28;20112;-55
2022/04/26 07:08:41;;;;;;;6.85;4.20;;;10.50;99.90;;;;;;5062235;28;20101;-56
2022/04/26 07:11:07;;;;;;;10.23;4.57;;;10.50;99.90;;;;;;5062187;28;20052;-55
2022/04/26 07:13:33;;;;;;;8.45;4.60;;;10.50;99.90;;;;;;5057749;28;20025;-55
2022/04/26 07:15:59;;;;;;;7.55;4.15;;;10.60;99.90;;;;;;5064062;28;20020;-55
2022/04/26 07:18:26;;;;;;;8.30;4.45;;;10.60;99.90;;;;;;5061431;28;20036;-55
2022/04/26 07:20:52;;;;;;;10.00;4.55;;;10.70;99.90;;;;;;5056576;28;20013;-55
2022/04/26 07:23:18;;;;;;;13.30;4.72;;;10.80;99.90;;;;;;5056648;28;20462;-55
2022/04/26 07:25:43;;;;;;;9.93;4.15;;;11.00;99.90;;;;;;5062948;28;20039;-55
2022/04/26 07:28:09;;;;;;;7.15;4.45;;;11.10;99.90;;;;;;5061621;28;20457;-55
2022/04/26 07:30:35;;;;;;;10.13;4.82;;;11.10;99.90;;;;;;5064577;28;20024;-55
2022/04/26 07:35:46;;;;;;;9.88;4.82;;;11.30;99.90;;;;;;5057760;28;20089;-55
2022/04/26 07:38:12;;;;;;;6.53;4.32;;;11.80;99.90;;;;;;5056903;28;20116;-55
2022/04/26 07:40:38;;;;;;;6.35;4.90;;;12.70;99.90;;;;;;5058122;28;20125;-55
2022/04/26 07:43:04;;;;;;;5.35;4.55;;;13.30;99.90;;;;;;5060446;28;20074;-55
2022/04/26 07:45:31;;;;;;;5.68;5.10;;;14.00;99.90;;;;;;5063212;28;20130;-55
2022/04/26 07:47:58;;;;;;;8.02;4.68;;;13.80;99.90;;;;;;5056616;28;20052;-55
2022/04/26 07:50:24;;;;;;;9.18;5.60;;;13.90;99.90;;;;;;5063268;28;20021;-55
2022/04/26 07:52:50;;;;;;;13.50;5.93;;;13.50;99.90;;;;;;5062324;28;20489;-55
2022/04/26 07:55:16;;;;;;;8.30;5.07;;;13.80;99.90;;;;;;5062044;28;20044;-55
2022/04/26 07:57:42;;;;;;;10.50;5.05;;;14.40;99.90;;;;;;5058718;28;20078;-55
2022/04/26 08:00:08;;;;;;;8.07;5.35;;;14.30;99.90;;;;;;5059271;28;20024;-55
2022/04/26 08:02:35;;;;;;;7.82;5.55;;;14.40;99.90;;;;;;5057864;28;20147;-57
2022/04/26 08:05:01;;;;;;;6.68;5.10;;;14.10;99.90;;;;;;5058388;28;20032;-56
2022/04/26 08:07:31;;;;;;;7.88;5.28;;;13.80;99.90;;;;;;5054560;28;20067;-55
2022/04/26 08:09:57;;;;;;;10.25;5.72;;;13.50;99.90;;;;;;5055799;28;20748;-56
2022/04/26 08:12:23;;;;;;;7.68;5.47;;;13.30;99.90;;;;;;5055860;28;20033;-56
2022/04/26 08:14:49;;;;;;;10.32;5.88;;;13.40;99.90;;;;;;5058998;28;20058;-56
2022/04/26 08:17:15;;;;;;;15.10;6.45;;;13.40;99.90;;;;;;5058688;28;20428;-55
2022/04/26 08:19:44;;;;;;;16.50;6.57;;;13.20;99.90;;;;;;5058966;28;20052;-56
2022/04/26 08:22:10;;;;;;;10.30;6.60;;;13.10;99.90;;;;;;5052753;28;20029;-56
2022/04/26 08:27:22;;;;;;;11.25;6.90;;;12.50;99.90;;;;;;5054715;28;20089;-56
2022/04/26 08:29:49;;;;;;;7.20;5.95;;;12.60;99.90;;;;;;5056626;28;20059;-55
2022/04/26 08:32:14;;;;;;;8.88;5.72;;;12.60;99.90;;;;;;5056803;28;20397;-55
2022/04/26 08:34:41;;;;;;;6.43;5.20;;;12.80;99.90;;;;;;5064059;28;20127;-55
2022/04/26 08:37:07;;;;;;;8.20;5.05;;;13.80;99.90;;;;;;5059429;28;20048;-56
2022/04/26 08:39:33;;;;;;;6.00;4.70;;;14.40;99.90;;;;;;5064420;28;20079;-55
2022/04/26 08:41:59;;;;;;;10.10;4.50;;;15.70;99.90;;;;;;5061735;28;20021;-55
2022/04/26 08:44:27;;;;;;;7.30;3.90;;;16.50;99.50;;;;;;5058963;28;20047;-56
2022/04/26 08:52:23;;;;;;;6.55;4.10;;;17.70;96.10;;;;;;5053361;28;20182;-56
2022/04/26 08:54:49;;;;;;;7.18;4.25;;;17.90;95.20;;;;;;5059311;28;20043;-56
2022/04/26 08:57:15;;;;;;;5.05;3.45;;;18.10;94.80;;;;;;5060232;28;20119;-55
2022/04/26 08:59:48;;;;;;;8.80;4.25;;;18.30;94.20;;;;;;5060690;28;20178;-56
2022/04/26 09:02:16;;;;;;;6.18;3.85;;;18.90;93.00;;;;;;5063764;28;20437;-57
2022/04/26 09:04:42;;;;;;;9.93;4.13;;;18.80;91.50;;;;;;5051953;28;20024;-59
2022/04/26 09:07:26;;;;;;;7.50;4.05;;;19.00;91.30;;;;;;5065088;28;20476;-58
2022/04/26 09:10:11;;;;;;;10.55;4.35;;;19.70;90.60;;;;;;5061871;28;20032;-58
2022/04/26 09:13:09;;;;;;;11.30;4.20;;;19.40;90.90;;;;;;5076005;28;20046;-58
2022/04/26 09:15:55;;;;;;;6.65;3.70;;;19.20;91.10;;;;;;5063719;28;20035;-57
2022/04/26 09:18:30;;;;;;;10.13;4.43;;;18.30;91.40;;;;;;5057822;28;20039;-57
2022/04/26 09:21:16;;;;;;;10.00;4.38;;;17.30;93.20;;;;;;5060359;28;20104;-57
2022/04/26 09:23:44;;;;;;;9.05;5.13;;;16.40;94.00;;;;;;5063698;28;20497;-57
2022/04/26 09:26:12;;;;;;;11.95;4.60;;;15.90;95.30;;;;;;5062956;28;20146;-57
2022/04/26 09:28:48;;;;;;;6.05;3.78;;;16.10;95.40;;;;;;5061103;28;20036;-57
2022/04/26 09:31:29;;;;;;;8.00;4.43;;;16.80;93.50;;;;;;5061412;28;20039;-57
2022/04/26 09:33:57;;;;;;;7.72;4.80;;;17.10;93.60;;;;;;5064670;28;20041;-57
2022/04/26 09:36:31;;;;;;;8.57;4.60;;;16.80;93.90;;;;;;5064488;28;20040;-57
2022/04/26 09:39:01;;;;;;;9.10;5.20;;;16.20;94.80;;;;;;5068919;28;20120;-57
2022/04/26 09:41:28;;;;;;;9.15;4.93;;;16.00;95.70;;;;;;5058207;28;20548;-57
2022/04/26 09:44:03;;;;;;;7.25;4.68;;;15.60;95.90;;;;;;5062372;28;20028;-57
2022/04/26 09:46:44;;;;;;;7.40;4.47;;;16.40;95.20;;;;;;5065414;28;20520;-57
2022/04/26 09:49:14;;;;;;;6.55;4.38;;;17.20;93.60;;;;;;5060583;28;20487;-57
2022/04/26 09:51:41;;;;;;;6.93;4.30;;;17.00;92.80;;;;;;5060914;28;20484;-57
2022/04/26 09:54:07;;;;;;;12.18;4.70;;;16.80;92.60;;;;;;5061597;28;20107;-57
2022/04/26 09:56:34;;;;;;;6.53;3.65;;;16.60;94.00;;;;;;5061049;28;20508;-57
2022/04/26 09:59:02;;;;;;;6.68;3.83;;;17.60;92.30;;;;;;5064773;28;20068;-57
2022/04/26 10:01:41;;;;;;;7.38;3.70;;;17.90;91.70;;;;;;5065611;28;20051;-57
2022/04/26 10:04:09;;;;;;;7.95;3.63;;;18.40;90.50;;;;;;5058073;28;20696;-57
2022/04/26 10:06:37;;;;;;;6.50;3.20;;;18.70;84.80;;;;;;5061155;28;20028;-57
2022/04/26 10:09:07;;;;;;;5.28;2.33;;;18.50;82.40;;;;;;5059676;28;20052;-57
2022/04/26 10:11:32;;;;;;;2.95;2.22;;;18.50;78.90;;;;;;5057462;28;20029;-57
2022/04/26 10:14:02;;;;;;;4.75;2.80;;;19.10;76.50;;;;;;5066296;28;20047;-58
2022/04/26 10:16:28;;;;;;;7.78;3.15;;;19.30;77.70;;;;;;5056527;28;21396;-58
2022/04/26 10:19:12;;;;;;;7.50;3.63;;;19.50;81.00;;;;;;5056894;28;20440;-58
2022/04/26 10:21:40;;;;;;;11.23;3.40;;;19.70;80.90;;;;;;5052830;28;20029;-58
2022/04/26 10:24:13;;;;;;;8.75;3.40;;;19.90;78.90;;;;;;5061393;28;20029;-59
2022/04/26 10:26:39;;;;;;;7.50;3.80;;;20.20;79.20;;;;;;5057624;28;20025;-59
2022/04/26 10:29:07;;;;;;;7.88;3.78;;;21.10;78.30;;;;;;5051865;28;20043;-57
2022/04/26 10:31:37;;;;;;;15.10;3.47;;;20.60;78.40;;;;;;5060106;28;20431;-58
2022/04/26 10:34:18;;;;;;;8.00;3.70;;;19.70;79.20;;;;;;5059903;28;20536;-58
2022/04/26 10:36:54;;;;;;;10.60;3.63;;;19.10;81.70;;;;;;5053830;28;20050;-58
2022/04/26 10:39:21;;;;;;;8.82;3.90;;;18.80;82.40;;;;;;5053629;28;20027;-58
2022/04/26 10:41:47;;;;;;;10.70;3.63;;;19.20;80.40;;;;;;5061940;28;20039;-58
2022/04/26 10:44:13;;;;;;;9.98;3.92;;;19.60;80.40;;;;;;5058288;28;20036;-58
2022/04/26 10:46:45;;;;;;;7.22;3.20;;;20.70;78.70;;;;;;5061595;28;20032;-58
2022/04/26 10:49:29;;;;;;;6.72;3.47;;;20.70;74.60;;;;;;5063589;28;20031;-59
2022/04/26 10:55:02;;;;;;;15.25;3.97;;;21.20;72.80;;;;;;5060210;28;20362;-58
2022/04/26 10:57:35;;;;;;;6.22;3.50;;;20.80;73.00;;;;;;5068060;28;20060;-58
2022/04/26 11:00:17;;;;;;;10.27;3.53;;;20.80;72.90;;;;;;5064167;28;20032;-58
2022/04/26 11:02:46;;;;;;;12.95;4.00;;;20.70;73.90;;;;;;5063029;28;21263;-58
2022/04/26 11:05:15;;;;;;;8.43;3.50;;;21.20;73.50;;;;;;5051085;28;20110;-58
2022/04/26 11:07:46;;;;;;;9.85;4.07;;;21.30;72.70;;;;;;5052348;28;20052;-58
2022/04/26 11:10:14;;;;;;;6.45;3.65;;;21.00;72.20;;;;;;5054469;28;20451;-58
2022/04/26 11:12:40;;;;;;;7.05;4.20;;;21.10;72.40;;;;;;5061109;28;20509;-58
2022/04/26 11:15:19;;;;;;;4.55;3.50;;;21.10;71.80;;;;;;5062160;28;20032;-58
2022/04/26 11:17:45;;;;;;;6.82;3.45;;;21.40;72.60;;;;;;5062193;28;20032;-58
2022/04/26 11:20:14;;;;;;;6.10;3.47;;;21.50;68.10;;;;;;5070976;28;20557;-58
2022/04/26 11:22:44;;;;;;;4.70;3.35;;;21.20;69.30;;;;;;5062578;28;20036;-57
2022/04/26 11:28:03;;;;;;;5.30;3.38;;;21.00;65.00;;;;;;5064367;28;20027;-57
2022/04/26 11:30:43;;;;;;;5.53;3.67;;;21.20;65.90;;;;;;5063317;28;20469;-57
2022/04/26 11:33:14;;;;;;;4.93;3.22;;;20.80;66.10;;;;;;5061145;28;20048;-57
2022/04/26 11:35:41;;;;;;;8.40;3.40;;;20.40;68.30;;;;;;5062279;28;20028;-57
2022/04/26 11:38:12;;;;;;;5.45;3.45;;;21.30;68.70;;;;;;5059695;28;20112;-58
2022/04/26 11:40:41;;;;;;;5.90;3.50;;;21.40;66.00;;;;;;5077028;28;20496;-57
2022/04/26 11:43:17;;;;;;;6.90;3.10;;;20.70;67.40;;;;;;5068433;28;20732;-57
2022/04/26 11:45:52;;;;;;;3.92;3.03;;;21.20;65.80;;;;;;5057511;28;20180;-57
2022/04/26 11:48:23;;;;;;;6.63;3.25;;;21.00;65.20;;;;;;5059878;28;20020;-57
2022/04/26 11:50:50;;;;;;;4.88;3.22;;;21.00;66.30;;;;;;5060896;28;20492;-57
2022/04/26 11:53:28;;;;;;;6.53;4.03;;;21.00;65.30;;;;;;5057485;28;20555;-57
2022/04/26 11:55:55;;;;;;;6.25;3.30;;;21.60;62.70;;;;;;5059857;28;20662;-57
2022/04/26 11:58:27;;;;;;;5.82;3.00;;;21.80;64.40;;;;;;5055145;28;20020;-57
2022/04/26 12:01:00;;;;;;;4.25;3.25;;;21.70;62.10;;;;;;5062878;28;20036;-57
2022/04/26 12:03:40;;;;;;;4.50;3.45;;;22.00;61.60;;;;;;5062357;28;20131;-57
2022/04/26 12:06:07;;;;;;;5.32;3.40;;;22.90;60.40;;;;;;5061607;28;20484;-57
2022/04/26 12:08:39;;;;;;;6.28;3.65;;;23.40;59.50;;;;;;5066858;28;20048;-57
2022/04/26 12:11:22;;;;;;;7.03;3.50;;;23.20;59.10;;;;;;5061289;28;20029;-57
2022/04/26 12:14:06;;;;;;;6.43;3.63;;;22.70;59.00;;;;;;5049104;28;20033;-57
2022/04/26 12:16:35;;;;;;;5.05;3.60;;;22.00;60.20;;;;;;5054983;28;20056;-57
2022/04/26 12:19:03;;;;;;;5.72;3.92;;;22.10;59.90;;;;;;5059616;28;20025;-57
2022/04/26 12:21:42;;;;;;;6.15;3.65;;;22.20;60.40;;;;;;5054490;28;20175;-57
2022/04/26 12:24:15;;;;;;;5.07;3.63;;;22.00;60.00;;;;;;5058854;28;20024;-57
2022/04/26 12:27:04;;;;;;;7.38;3.70;;;23.10;59.80;;;;;;5064856;28;20024;-57
2022/04/26 12:29:30;;;;;;;6.25;2.97;;;23.60;56.90;;;;;;5065740;28;20141;-57
2022/04/26 12:31:57;;;;;;;5.25;3.20;;;22.90;56.70;;;;;;5059825;28;20486;-57
2022/04/26 12:34:26;;;;;;;5.72;3.22;;;22.40;58.00;;;;;;5062022;28;20052;-57
2022/04/26 12:36:53;;;;;;;6.50;3.38;;;22.40;58.10;;;;;;5056811;28;20418;-57
2022/04/26 12:39:20;;;;;;;4.82;3.58;;;23.10;57.50;;;;;;5068761;28;20060;-57
2022/04/26 12:41:51;;;;;;;4.75;3.40;;;23.00;55.60;;;;;;5066986;28;20100;-57
2022/04/26 12:44:18;;;;;;;4.78;3.30;;;22.90;55.90;;;;;;5066137;28;20424;-57
2022/04/26 12:50:27;;;;;;;5.10;3.13;;;22.00;57.40;;;;;;5062681;28;20441;-57
2022/04/26 12:52:38;;;;;;;6.10;3.67;;;22.40;57.70;;;;;;5060152;28;20031;-57
2022/04/26 12:55:04;;;;;;;4.72;3.83;;;22.80;56.40;;;;;;5064888;28;20025;-57
2022/04/26 12:57:29;;;;;;;6.18;3.97;;;22.00;57.30;;;;;;5058480;28;20068;-57
2022/04/26 12:59:55;;;;;;;6.80;4.25;;;21.80;59.80;;;;;;5057265;28;20492;-57
2022/04/26 13:02:21;;;;;;;9.55;4.00;;;21.90;60.70;;;;;;5052863;28;20103;-57
2022/04/26 13:04:46;;;;;;;8.20;3.85;;;22.00;60.70;;;;;;5061705;28;20020;-56
2022/04/26 13:07:13;;;;;;;9.50;4.38;;;21.60;61.40;;;;;;5058837;28;20099;-57
2022/04/26 13:09:39;;;;;;;12.13;4.00;;;22.70;59.50;;;;;;5057185;28;20041;-57
2022/04/26 13:12:05;;;;;;;8.52;4.30;;;22.80;59.60;;;;;;5059824;28;20393;-57
2022/04/26 13:14:31;;;;;;;8.93;4.40;;;21.90;62.30;;;;;;5058214;28;20028;-57
2022/04/26 13:16:57;;;;;;;11.40;5.07;;;20.80;64.50;;;;;;5062036;28;20115;-56
2022/04/26 13:19:23;;;;;;;9.48;5.03;;;19.60;66.90;;;;;;5065358;28;20422;-57
2022/04/26 13:21:48;;;;;;;9.98;4.97;;;19.30;68.50;;;;;;5070672;28;20038;-56
2022/04/26 13:24:15;;;;;;;12.85;5.28;;;18.60;70.40;;;;;;5061330;28;20578;-57
2022/04/26 13:26:41;;;;;;;11.45;5.07;;;19.20;68.90;;;;;;5061247;28;20231;-56
2022/04/26 13:29:06;;;;;;;6.10;4.38;;;19.90;67.30;;;;;;5058331;28;20645;-57
2022/04/26 13:31:32;;;;;;;6.53;4.30;;;20.70;65.90;;;;;;5063091;28;20043;-57
2022/04/26 13:33:58;;;;;;;10.55;4.90;;;20.50;65.00;;;;;;5059981;28;20048;-57
2022/04/26 13:36:26;;;;;;;7.35;4.05;;;20.00;65.60;;;;;;5059526;28;20025;-57
2022/04/26 13:38:51;;;;;;;7.93;4.50;;;20.30;66.60;;;;;;5063114;28;20094;-57
2022/04/26 13:41:17;;;;;;;4.35;3.92;;;21.30;65.00;;;;;;5066626;28;20641;-57
2022/04/26 13:43:43;;;;;;;8.02;3.92;;;21.90;63.10;;;;;;5063259;28;20043;-57
2022/04/26 13:46:10;;;;;;;8.45;4.35;;;22.20;62.10;;;;;;5066295;28;20023;-57
2022/04/26 13:48:36;;;;;;;8.48;4.43;;;22.80;60.40;;;;;;5063432;28;20025;-57
2022/04/26 13:51:02;;;;;;;11.55;4.47;;;22.00;61.60;;;;;;5066273;28;20496;-57
2022/04/26 13:53:30;;;;;;;7.60;4.40;;;21.00;63.00;;;;;;5067296;28;20107;-57
2022/04/26 13:55:56;;;;;;;5.97;4.50;;;20.10;65.70;;;;;;5057900;28;20071;-57
2022/04/26 13:58:21;;;;;;;10.27;4.75;;;19.90;64.90;;;;;;5065976;28;20060;-57
2022/04/26 14:00:47;;;;;;;10.55;4.85;;;20.40;65.60;;;;;;5062403;28;20058;-57
2022/04/26 14:03:13;;;;;;;11.70;4.90;;;20.70;64.20;;;;;;5060450;28;20101;-57
2022/04/26 14:05:39;;;;;;;7.57;4.60;;;20.90;64.90;;;;;;5056892;28;20025;-57
2022/04/26 14:08:05;;;;;;;8.95;5.15;;;21.10;63.90;;;;;;5056971;28;20047;-57
2022/04/26 14:10:31;;;;;;;8.82;4.70;;;21.30;63.70;;;;;;5059484;28;20020;-57
2022/04/26 14:12:57;;;;;;;6.82;5.00;;;20.80;65.50;;;;;;5059724;28;20013;-57
2022/04/26 14:23:35;;;;;;;7.25;4.82;;;18.70;69.90;;;;;;5061979;28;20043;-57
2022/04/26 14:26:03;;;;;;;10.82;5.80;;;19.30;68.90;;;;;;5071131;28;20036;-57
2022/04/26 14:28:29;;;;;;;7.30;4.88;;;18.80;69.60;;;;;;5062938;28;20025;-56
2022/04/26 14:30:54;;;;;;;9.60;4.60;;;19.60;67.80;;;;;;5067576;28;20024;-57
2022/04/26 14:33:20;;;;;;;6.55;4.38;;;20.00;66.40;;;;;;5068131;28;20523;-57
2022/04/26 14:35:46;;;;;;;8.55;4.63;;;20.30;67.10;;;;;;5072013;28;20512;-57
2022/04/26 14:38:11;;;;;;;7.95;4.65;;;21.10;64.90;;;;;;5066651;28;20035;-57
2022/04/26 14:40:38;;;;;;;7.90;4.68;;;20.90;63.90;;;;;;5065444;28;20025;-57
2022/04/26 14:43:05;;;;;;;9.30;4.43;;;21.10;64.40;;;;;;5070949;28;20028;-57
2022/04/26 14:45:32;;;;;;;7.28;4.40;;;21.00;64.70;;;;;;5068024;28;20115;-57
2022/04/26 14:48:00;;;;;;;9.88;4.53;;;20.40;65.10;;;;;;5056630;28;20286;-57
2022/04/26 14:50:26;;;;;;;8.73;4.50;;;20.30;65.20;;;;;;5066781;28;20500;-57
2022/04/26 14:52:53;;;;;;;8.40;4.95;;;19.20;66.30;;;;;;5070526;28;20020;-57
2022/04/26 14:55:19;;;;;;;10.20;4.63;;;18.50;68.30;;;;;;5062978;28;20043;-56
2022/04/26 14:57:44;;;;;;;7.75;4.20;;;18.10;68.80;;;;;;5063909;28;20557;-57
2022/04/26 15:00:10;;;;;;;11.50;4.65;;;18.20;68.80;;;;;;5069055;28;20211;-57
2022/04/26 15:02:39;;;;;;;7.68;4.85;;;18.00;68.90;;;;;;5072628;28;20040;-54
2022/04/26 15:05:09;;;;;;;6.88;4.90;;;17.70;69.80;;;;;;5071199;28;20078;-54
2022/04/26 15:09:42;;;;;;;5.97;4.60;;;17.50;70.70;;;;;;5072355;28;20187;-54
2022/04/26 15:10:22;;;;;;;8.13;5.03;;;17.90;71.00;;;;;;5072614;28;20298;-56
2022/04/26 15:18:17;;;;;;;7.47;4.28;;;17.90;70.20;;;;;;5072175;28;20035;-57
2022/04/26 15:20:45;;;;;;;7.05;4.75;;;18.90;68.80;;;;;;5072172;28;20024;-57
2022/04/26 15:23:11;;;;;;;8.40;4.30;;;18.40;69.20;;;;;;5070905;28;20040;-57
2022/04/26 15:25:36;;;;;;;12.70;4.68;;;18.00;71.00;;;;;;5084164;28;20082;-57
2022/04/26 15:28:02;;;;;;;8.93;4.97;;;17.90;71.50;;;;;;5070034;28;20021;-56
2022/04/26 15:30:28;;;;;;;8.40;4.65;;;17.60;72.30;;;;;;5069985;28;20025;-56
2022/04/26 15:32:54;;;;;;;9.02;4.72;;;17.20;73.00;;;;;;5069271;28;20579;-56
2022/04/26 15:35:19;;;;;;;12.43;5.63;;;17.00;73.60;;;;;;5068818;28;20491;-56
2022/04/26 15:37:45;;;;;;;9.10;5.72;;;16.90;74.20;;;;;;5069122;28;20082;-56
2022/04/26 15:40:11;;;;;;;8.88;5.07;;;16.70;74.60;;;;;;5070568;28;20541;-57
2022/04/26 15:42:36;;;;;;;6.47;4.88;;;16.80;76.10;;;;;;5069382;28;20040;-56
2022/04/26 15:45:03;;;;;;;8.95;4.88;;;16.90;74.90;;;;;;5086761;28;20511;-56
2022/04/26 15:47:29;;;;;;;7.60;5.13;;;16.90;74.40;;;;;;5071538;28;20024;-56
2022/04/26 15:49:55;;;;;;;12.60;5.00;;;17.20;73.60;;;;;;5070064;28;20374;-57
2022/04/26 15:52:20;;;;;;;11.27;5.47;;;17.60;73.30;;;;;;5072493;28;20017;-57
2022/04/26 15:54:46;;;;;;;6.95;4.03;;;17.90;72.30;;;;;;5070223;28;20020;-57
2022/04/26 15:57:13;;;;;;;10.52;4.68;;;17.80;72.50;;;;;;5071468;28;20028;-56
2022/04/26 15:59:39;;;;;;;7.05;4.40;;;17.80;73.10;;;;;;5069994;28;20048;-56
2022/04/26 16:02:07;;;;;;;9.25;3.95;;;17.40;74.10;;;;;;5071777;28;20043;-55
2022/04/26 16:04:33;;;;;;;9.75;5.05;;;16.70;75.10;;;;;;5070086;28;20029;-57
2022/04/26 16:06:59;;;;;;;9.32;4.57;;;16.70;75.90;;;;;;5071563;28;20021;-57
2022/04/26 16:20:30;;;;;;;8.15;4.15;;;16.50;76.50;;;;;;5071233;28;20039;-56
2022/04/26 16:23:01;;;;;;;6.55;4.50;;;16.10;77.70;;;;;;5070952;28;20025;-57
2022/04/26 16:25:27;;;;;;;12.65;5.10;;;16.10;78.40;;;;;;5071165;28;20029;-57
2022/04/26 16:27:52;;;;;;;7.45;4.45;;;16.10;79.00;;;;;;5070942;28;20020;-56
2022/04/26 16:30:19;;;;;;;10.00;4.70;;;16.00;78.80;;;;;;5070925;28;20512;-56
2022/04/26 16:32:44;;;;;;;10.30;5.15;;;15.70;79.10;;;;;;5071380;28;20020;-56
2022/04/26 16:35:11;;;;;;;7.10;5.20;;;15.50;79.70;;;;;;5072067;28;20073;-58
2022/04/26 16:37:38;;;;;;;6.55;4.80;;;15.30;80.50;;;;;;5070682;28;20029;-57
2022/04/26 16:40:05;;;;;;;8.50;4.38;;;15.30;80.80;;;;;;5071651;28;20028;-58
2022/04/26 16:42:30;;;;;;;7.35;4.30;;;15.10;80.60;;;;;;5070824;28;20382;-57
2022/04/26 16:44:56;;;;;;;9.18;4.80;;;15.00;81.00;;;;;;5072046;28;20035;-57
2022/04/26 16:47:22;;;;;;;5.82;4.13;;;15.00;81.30;;;;;;5070156;28;20023;-57
2022/04/26 16:49:50;;;;;;;6.28;4.57;;;14.90;80.90;;;;;;5071320;28;20113;-57
2022/04/26 16:52:16;;;;;;;11.02;4.50;;;14.80;80.90;;;;;;5071692;28;20027;-58
2022/04/26 16:54:45;;;;;;;7.78;4.13;;;14.90;81.50;;;;;;5070974;28;20024;-57
2022/04/26 16:57:11;;;;;;;9.35;3.92;;;14.90;81.50;;;;;;5071618;28;20043;-57
2022/04/26 16:59:36;;;;;;;5.72;3.45;;;14.70;81.20;;;;;;5071437;28;20032;-57
2022/04/26 17:02:03;;;;;;;7.97;4.00;;;14.60;81.40;;;;;;5053519;28;20039;-55
2022/04/26 17:04:32;;;;;;;7.80;4.50;;;14.60;81.40;;;;;;5071098;28;20071;-56
2022/04/26 17:06:58;;;;;;;9.55;4.07;;;14.60;81.50;;;;;;5071077;28;20025;-56
2022/04/26 17:09:24;;;;;;;8.68;4.20;;;14.60;81.80;;;;;;5072076;28;20020;-56
2022/04/26 17:11:50;;;;;;;6.40;3.97;;;14.50;81.90;;;;;;5070471;28;20051;-56